createdAt,value
2023-02-22T00:00:43.239Z,24.63
2023-02-22T00:03:16.200Z,27.50
2023-02-22T00:05:47.212Z,25.87
2023-02-22T00:08:15.415Z,22.17
2023-02-22T00:10:41.849Z,23.63
2023-02-22T00:13:09.777Z,23.37
2023-02-22T00:15:36.504Z,25.57
2023-02-22T00:18:04.823Z,26.30
2023-02-22T00:20:31.167Z,27.60
2023-02-22T00:22:57.603Z,25.53
2023-02-22T00:25:24.824Z,24.27
2023-02-22T00:27:52.825Z,25.20
2023-02-22T00:30:27.025Z,24.63
2023-02-22T00:32:55.851Z,24.03
2023-02-22T00:35:25.692Z,24.93
2023-02-22T00:37:55.568Z,24.53
2023-02-22T00:40:24.797Z,23.53
2023-02-22T00:42:51.874Z,25.33
2023-02-22T00:45:24.053Z,23.57
2023-02-22T00:47:51.095Z,25.13
2023-02-22T00:50:18.804Z,25.80
2023-02-22T00:52:45.715Z,23.93
2023-02-22T00:55:24.827Z,26.47
2023-02-22T00:57:51.281Z,25.90
2023-02-22T01:00:24.288Z,24.77
2023-02-22T01:02:51.720Z,24.43
2023-02-22T01:05:23.897Z,26.60
2023-02-22T01:07:55.598Z,25.33
2023-02-22T01:10:24.803Z,24.63
2023-02-22T01:12:52.455Z,25.77
2023-02-22T01:15:23.789Z,24.30
2023-02-22T01:17:53.372Z,25.17
2023-02-22T01:20:22.726Z,25.03
2023-02-22T01:22:51.446Z,26.00
2023-02-22T01:25:22.058Z,24.83
2023-02-22T01:27:50.082Z,23.80
2023-02-22T01:30:21.835Z,26.37
2023-02-22T01:32:48.229Z,24.37
2023-02-22T01:35:18.381Z,25.40
2023-02-22T01:37:45.342Z,24.87
2023-02-22T01:40:20.222Z,22.73
2023-02-22T01:42:55.352Z,26.27
2023-02-22T01:45:30.790Z,25.67
2023-02-22T01:48:28.549Z,25.70
2023-02-22T01:51:03.461Z,27.23
2023-02-22T01:53:36.964Z,27.77
2023-02-22T01:56:04.514Z,25.10
2023-02-22T01:58:33.504Z,25.23
2023-02-22T02:01:01.049Z,24.90
2023-02-22T02:03:33.192Z,24.30
2023-02-22T02:06:02.725Z,23.67
2023-02-22T02:08:39.767Z,23.57
2023-02-22T02:11:09.223Z,24.10
2023-02-22T02:13:36.187Z,26.20
2023-02-22T02:16:02.540Z,25.03
2023-02-22T02:18:29.333Z,23.40
2023-02-22T02:21:24.074Z,28.07
2023-02-22T02:23:59.686Z,25.57
2023-02-22T02:27:02.927Z,23.77
2023-02-22T02:29:43.503Z,24.17
2023-02-22T02:32:59.847Z,23.53
2023-02-22T02:35:58.607Z,21.50
2023-02-22T02:38:50.603Z,22.40
2023-02-22T02:41:49.132Z,23.83
2023-02-22T02:44:37.815Z,26.33
2023-02-22T02:47:21.942Z,26.20
2023-02-22T02:49:54.833Z,26.30
2023-02-22T02:52:24.822Z,24.50
2023-02-22T02:54:52.746Z,25.57
2023-02-22T02:57:19.079Z,24.30
2023-02-22T02:59:46.295Z,24.60
2023-02-22T03:02:36.781Z,22.37
2023-02-22T03:05:12.942Z,24.77
2023-02-22T03:08:01.819Z,22.60
2023-02-22T03:10:37.652Z,22.53
2023-02-22T03:13:19.226Z,22.33
2023-02-22T03:16:16.612Z,23.73
2023-02-22T03:18:55.958Z,21.77
2023-02-22T03:21:31.483Z,31.30
2023-02-22T03:24:09.866Z,23.73
2023-02-22T03:26:43.387Z,21.07
2023-02-22T03:29:13.158Z,24.00
2023-02-22T03:31:43.546Z,22.87
2023-02-22T03:34:16.971Z,22.97
2023-02-22T03:36:49.981Z,22.90
2023-02-22T03:39:20.168Z,22.17
2023-02-22T03:41:51.296Z,28.93
2023-02-22T03:44:25.414Z,26.23
2023-02-22T03:46:56.640Z,25.47
2023-02-22T03:49:32.723Z,23.23
2023-02-22T03:52:01.023Z,25.90
2023-02-22T03:54:29.095Z,21.60
2023-02-22T03:57:00.802Z,21.27
2023-02-22T03:59:29.192Z,20.13
2023-02-22T04:01:56.887Z,20.23
2023-02-22T04:04:25.252Z,19.30
2023-02-22T04:06:52.444Z,18.27
2023-02-22T04:09:19.575Z,18.30
2023-02-22T04:11:45.988Z,17.20
2023-02-22T04:14:12.941Z,16.90
2023-02-22T04:16:39.670Z,18.63
2023-02-22T04:19:08.757Z,18.97
2023-02-22T04:21:37.535Z,16.57
2023-02-22T04:24:05.063Z,23.07
2023-02-22T04:26:31.946Z,24.60
2023-02-22T04:29:00.579Z,22.33
2023-02-22T04:31:33.989Z,20.07
2023-02-22T04:34:01.439Z,17.87
2023-02-22T04:36:31.752Z,16.67
2023-02-22T04:39:00.083Z,16.23
2023-02-22T04:41:28.517Z,20.60
2023-02-22T04:43:54.941Z,22.07
2023-02-22T04:46:23.592Z,23.23
2023-02-22T04:48:51.632Z,21.27
2023-02-22T04:51:21.020Z,21.70
2023-02-22T04:53:56.237Z,20.20
2023-02-22T04:56:22.686Z,21.20
2023-02-22T04:58:49.042Z,18.90
2023-02-22T05:01:16.481Z,18.70
2023-02-22T05:03:43.844Z,22.97
2023-02-22T05:06:12.283Z,18.57
2023-02-22T05:08:38.674Z,16.80
2023-02-22T05:11:05.682Z,16.57
2023-02-22T05:13:32.078Z,15.20
2023-02-22T05:15:58.460Z,16.07
2023-02-22T05:18:24.934Z,16.37
2023-02-22T05:20:51.313Z,14.73
2023-02-22T05:23:17.649Z,16.27
2023-02-22T05:25:44.380Z,15.70
2023-02-22T05:28:12.953Z,13.87
2023-02-22T05:30:39.852Z,16.30
2023-02-22T05:33:07.299Z,14.37
2023-02-22T05:35:33.802Z,14.80
2023-02-22T05:38:02.995Z,15.27
2023-02-22T05:40:30.192Z,16.30
2023-02-22T05:42:56.918Z,16.00
2023-02-22T05:45:25.850Z,16.97
2023-02-22T05:47:53.244Z,16.43
2023-02-22T05:50:20.964Z,16.97
2023-02-22T05:52:48.619Z,15.67
2023-02-22T05:55:18.260Z,17.33
2023-02-22T05:57:44.808Z,17.03
2023-02-22T06:00:16.366Z,15.33
2023-02-22T06:02:42.737Z,16.30
2023-02-22T06:05:09.161Z,16.17
2023-02-22T06:07:35.558Z,14.40
2023-02-22T06:10:01.976Z,15.03
2023-02-22T06:12:28.316Z,16.03
2023-02-22T06:14:54.775Z,16.07
2023-02-22T06:17:21.171Z,15.80
2023-02-22T06:19:47.531Z,17.40
2023-02-22T06:22:18.788Z,17.90
2023-02-22T06:24:45.233Z,16.63
2023-02-22T06:27:11.966Z,19.30
2023-02-22T06:29:38.337Z,17.27
2023-02-22T06:32:05.023Z,18.70
2023-02-22T06:34:31.486Z,19.27
2023-02-22T06:36:59.936Z,21.40
2023-02-22T06:39:26.436Z,23.73
2023-02-22T06:41:55.114Z,20.67
2023-02-22T06:44:21.947Z,18.47
2023-02-22T06:46:52.805Z,18.27
2023-02-22T06:49:20.351Z,19.77
2023-02-22T06:51:47.598Z,17.47
2023-02-22T06:54:14.491Z,16.47
2023-02-22T06:56:40.840Z,21.53
2023-02-22T06:59:08.330Z,20.10
2023-02-22T07:01:34.859Z,19.80
2023-02-22T07:04:01.275Z,20.27
2023-02-22T07:06:27.640Z,20.70
2023-02-22T07:08:54.641Z,18.57
2023-02-22T07:11:21.046Z,16.43
2023-02-22T07:13:47.367Z,17.67
2023-02-22T07:16:13.869Z,17.73
2023-02-22T07:18:40.195Z,18.57
2023-02-22T07:21:07.450Z,20.47
2023-02-22T07:23:33.838Z,20.13
2023-02-22T07:26:01.256Z,21.03
2023-02-22T07:28:27.589Z,18.47
2023-02-22T07:30:53.999Z,17.20
2023-02-22T07:33:20.482Z,16.63
2023-02-22T07:35:48.915Z,18.13
2023-02-22T07:38:17.813Z,17.03
2023-02-22T07:40:44.930Z,14.97
2023-02-22T07:43:19.595Z,17.20
2023-02-22T07:45:47.866Z,18.13
2023-02-22T07:48:17.337Z,17.77
2023-02-22T07:50:44.665Z,17.50
2023-02-22T07:53:18.004Z,19.07
2023-02-22T07:55:44.866Z,18.23
2023-02-22T07:58:15.252Z,18.47
2023-02-22T08:00:43.947Z,19.17
2023-02-22T08:03:13.133Z,19.33
2023-02-22T08:05:42.316Z,19.83
2023-02-22T08:08:08.966Z,19.70
2023-02-22T08:10:35.698Z,19.37
2023-02-22T08:13:02.860Z,20.30
2023-02-22T08:15:33.173Z,20.67
2023-02-22T08:18:01.079Z,21.03
2023-02-22T08:20:29.061Z,22.70
2023-02-22T08:22:56.222Z,23.23
2023-02-22T08:25:27.153Z,22.90
2023-02-22T08:27:58.734Z,23.00
2023-02-22T08:30:25.656Z,22.60
2023-02-22T08:32:52.275Z,22.03
2023-02-22T08:35:20.146Z,21.90
2023-02-22T08:37:48.986Z,21.13
2023-02-22T08:40:17.834Z,23.93
2023-02-22T08:42:44.337Z,24.03
2023-02-22T08:45:13.216Z,24.03
2023-02-22T08:47:40.361Z,23.97
2023-02-22T08:50:07.890Z,24.03
2023-02-22T08:52:35.020Z,23.23
2023-02-22T08:55:01.688Z,22.90
2023-02-22T08:57:28.060Z,21.80
2023-02-22T08:59:54.434Z,22.40
2023-02-22T09:02:22.286Z,22.10
2023-02-22T09:04:49.101Z,22.40
2023-02-22T09:07:15.626Z,20.70
2023-02-22T09:09:45.338Z,19.97
2023-02-22T09:12:12.080Z,20.57
2023-02-22T09:14:38.572Z,20.27
2023-02-22T09:17:05.968Z,20.60
2023-02-22T09:19:32.575Z,21.13
2023-02-22T09:22:02.120Z,21.27
2023-02-22T09:24:28.553Z,22.97
2023-02-22T09:26:55.235Z,21.87
2023-02-22T09:29:23.367Z,23.03
2023-02-22T09:31:52.887Z,22.67
2023-02-22T09:34:20.840Z,24.77
2023-02-22T09:36:48.067Z,22.27
2023-02-22T09:39:16.799Z,22.23
2023-02-22T09:42:05.687Z,22.43
2023-02-22T09:44:48.204Z,23.17
2023-02-22T09:47:19.884Z,23.20
2023-02-22T09:50:15.367Z,24.73
2023-02-22T09:53:22.029Z,25.07
2023-02-22T09:55:53.176Z,24.93
2023-02-22T09:58:26.859Z,24.97
2023-02-22T10:01:00.968Z,24.57
2023-02-22T10:03:36.512Z,24.47
2023-02-22T10:06:09.993Z,25.67
2023-02-22T10:08:41.438Z,24.13
2023-02-22T10:11:23.036Z,24.40
2023-02-22T10:13:57.916Z,23.30
2023-02-22T10:16:36.940Z,23.87
2023-02-22T10:19:28.256Z,23.40
2023-02-22T10:22:19.149Z,23.23
2023-02-22T10:24:45.477Z,23.30
2023-02-22T10:27:29.075Z,23.07
2023-02-22T10:30:23.326Z,21.33
2023-02-22T10:32:55.744Z,25.13
2023-02-22T10:35:27.885Z,25.20
2023-02-22T10:38:12.422Z,24.77
2023-02-22T10:40:39.238Z,20.90
2023-02-22T10:43:08.165Z,23.30
2023-02-22T10:45:36.885Z,22.70
2023-02-22T10:48:11.416Z,25.13
2023-02-22T10:50:41.451Z,23.67
2023-02-22T10:53:10.112Z,23.40
2023-02-22T10:55:57.300Z,19.97
2023-02-22T10:58:24.393Z,19.53
2023-02-22T11:00:51.576Z,19.17
2023-02-22T11:03:23.665Z,19.17
2023-02-22T11:05:50.709Z,20.83
2023-02-22T11:08:17.044Z,19.20
2023-02-22T11:10:43.471Z,19.27
2023-02-22T11:13:25.782Z,19.23
2023-02-22T11:15:54.318Z,18.97
2023-02-22T11:18:33.468Z,18.33
2023-02-22T11:21:10.122Z,20.13
2023-02-22T11:23:38.643Z,18.80
2023-02-22T11:26:14.216Z,17.13
2023-02-22T11:28:49.180Z,18.57
2023-02-22T11:31:18.011Z,17.23
2023-02-22T11:36:42.874Z,17.63
2023-02-22T11:39:34.101Z,16.93
2023-02-22T11:42:22.615Z,16.77
2023-02-22T11:44:50.745Z,15.43
2023-02-22T11:47:24.437Z,16.33
2023-02-22T11:49:53.342Z,18.70
2023-02-22T11:52:29.738Z,17.00
2023-02-22T11:55:09.879Z,17.13
2023-02-22T11:57:51.209Z,16.43
2023-02-22T12:00:36.311Z,16.67
2023-02-22T12:03:37.837Z,17.13
2023-02-22T12:06:16.423Z,16.73
2023-02-22T12:09:01.228Z,17.57
2023-02-22T12:12:03.864Z,16.10
2023-02-22T12:14:45.961Z,15.33
2023-02-22T12:17:32.209Z,16.33
2023-02-22T12:20:09.927Z,14.93
2023-02-22T12:22:46.018Z,15.20
2023-02-22T12:25:22.616Z,14.10
2023-02-22T12:27:54.012Z,13.00
2023-02-22T12:30:28.816Z,12.03
2023-02-22T12:32:59.918Z,11.50
2023-02-22T12:35:37.218Z,11.87
2023-02-22T12:38:22.950Z,11.50
2023-02-22T12:41:02.690Z,9.67
2023-02-22T12:43:35.603Z,9.50
2023-02-22T12:46:24.277Z,7.53
2023-02-22T12:49:01.303Z,7.77
2023-02-22T12:51:48.554Z,7.13
2023-02-22T12:54:31.915Z,6.87
2023-02-22T12:57:11.470Z,6.93
2023-02-22T12:59:55.735Z,7.00
2023-02-22T13:02:45.497Z,7.72
2023-02-22T13:05:20.503Z,6.27
2023-02-22T13:07:52.712Z,5.80
2023-02-22T13:10:44.418Z,6.87
2023-02-22T13:13:32.285Z,6.20
2023-02-22T13:16:10.704Z,7.90
2023-02-22T13:18:53.537Z,20.07
2023-02-22T13:21:23.627Z,12.67
2023-02-22T13:24:06.489Z,7.40
2023-02-22T13:26:35.807Z,7.73
2023-02-22T13:29:17.543Z,7.13
2023-02-22T13:31:53.187Z,7.00
2023-02-22T13:34:27.324Z,7.27
2023-02-22T13:37:19.783Z,7.30
2023-02-22T13:40:13.847Z,8.00
2023-02-22T13:43:14.778Z,7.03
2023-02-22T13:45:46.838Z,7.60
2023-02-22T13:48:39.759Z,7.27
2023-02-22T13:51:15.652Z,7.70
2023-02-22T13:53:50.262Z,7.10
2023-02-22T13:56:20.280Z,6.93
2023-02-22T13:58:49.865Z,7.20
2023-02-22T14:01:43.995Z,6.63
2023-02-22T14:04:20.930Z,5.93
2023-02-22T14:06:47.338Z,6.27
2023-02-22T14:09:19.096Z,6.07
2023-02-22T14:11:54.058Z,6.43
2023-02-22T14:14:20.865Z,5.67
2023-02-22T14:17:19.147Z,6.20
2023-02-22T14:20:01.080Z,7.40
2023-02-22T14:22:30.648Z,6.10
2023-02-22T14:24:58.276Z,8.43
2023-02-22T14:27:24.851Z,8.90
2023-02-22T14:29:57.403Z,7.87
2023-02-22T14:32:32.227Z,9.30
2023-02-22T14:35:04.315Z,7.40
2023-02-22T14:37:42.608Z,7.33
2023-02-22T14:40:27.601Z,8.37
2023-02-22T14:43:20.811Z,8.00
2023-02-22T14:45:54.902Z,7.47
2023-02-22T14:48:33.518Z,8.63
2023-02-22T14:51:15.650Z,7.77
2023-02-22T14:53:52.640Z,8.90
2023-02-22T14:56:41.024Z,8.27
2023-02-22T14:59:21.526Z,8.00
2023-02-22T15:02:01.744Z,8.13
2023-02-22T15:04:32.421Z,7.67
2023-02-22T15:07:01.084Z,9.43
2023-02-22T15:09:32.962Z,8.90
2023-02-22T15:12:03.899Z,8.57
2023-02-22T15:14:37.626Z,10.73
2023-02-22T15:17:22.732Z,10.90
2023-02-22T15:19:49.931Z,14.03
2023-02-22T15:22:30.066Z,10.53
2023-02-22T15:25:06.097Z,11.33
2023-02-22T15:27:36.869Z,11.10
2023-02-22T15:30:26.422Z,10.33
2023-02-22T15:33:04.125Z,11.50
2023-02-22T15:35:33.255Z,12.87
2023-02-22T15:38:11.554Z,12.63
2023-02-22T15:40:42.868Z,12.00
2023-02-22T15:43:24.042Z,12.20
2023-02-22T15:45:54.748Z,12.23
2023-02-22T15:48:21.317Z,13.33
2023-02-22T15:51:06.410Z,13.67
2023-02-22T15:53:47.766Z,13.33
2023-02-22T15:56:24.231Z,15.23
2023-02-22T15:58:51.595Z,13.77
2023-02-22T16:01:19.832Z,13.30
2023-02-22T16:03:51.261Z,13.77
2023-02-22T16:06:35.092Z,14.63
2023-02-22T16:09:25.256Z,13.30
2023-02-22T16:12:10.963Z,14.83
2023-02-22T16:14:40.063Z,14.47
2023-02-22T16:17:25.466Z,14.43
2023-02-22T16:19:52.854Z,14.83
2023-02-22T16:22:37.254Z,14.60
2023-02-22T16:25:30.946Z,15.27
2023-02-22T16:28:01.458Z,13.93
2023-02-22T16:30:34.378Z,14.93
2023-02-22T16:33:05.451Z,15.33
2023-02-22T16:35:35.282Z,16.30
2023-02-22T16:38:04.912Z,15.87
2023-02-22T16:40:36.003Z,15.80
2023-02-22T16:43:05.965Z,15.27
2023-02-22T16:45:32.829Z,15.70
2023-02-22T16:48:00.181Z,14.47
2023-02-22T16:50:26.684Z,13.77
2023-02-22T16:52:55.658Z,13.60
2023-02-22T16:55:22.355Z,15.97
2023-02-22T16:57:49.897Z,16.27
2023-02-22T17:00:30.918Z,16.57
2023-02-22T17:03:03.804Z,16.30
2023-02-22T17:05:31.741Z,16.03
2023-02-22T17:07:58.189Z,16.53
2023-02-22T17:10:25.989Z,16.63
2023-02-22T17:12:53.261Z,17.27
2023-02-22T17:15:24.593Z,16.47
2023-02-22T17:17:52.622Z,17.03
2023-02-22T17:20:31.608Z,18.80
2023-02-22T17:23:08.008Z,18.37
2023-02-22T17:25:42.333Z,19.37
2023-02-22T17:28:09.351Z,18.57
2023-02-22T17:30:36.368Z,19.00
2023-02-22T17:33:06.388Z,20.23
2023-02-22T17:35:36.987Z,19.27
2023-02-22T17:38:06.013Z,18.23
2023-02-22T17:40:39.790Z,18.47
2023-02-22T17:43:08.780Z,18.30
2023-02-22T17:45:38.281Z,18.27
2023-02-22T17:48:05.395Z,19.80
2023-02-22T17:50:31.803Z,17.93
2023-02-22T17:53:00.407Z,20.07
2023-02-22T17:55:27.502Z,21.13
2023-02-22T17:57:58.483Z,19.17
2023-02-22T18:00:34.000Z,19.93
2023-02-22T18:03:03.343Z,20.80
2023-02-22T18:05:32.874Z,21.27
2023-02-22T18:08:00.197Z,21.10
2023-02-22T18:10:27.154Z,20.93
2023-02-22T18:12:53.921Z,21.77
2023-02-22T18:15:23.471Z,22.23
2023-02-22T18:17:50.252Z,22.70
2023-02-22T18:20:30.815Z,21.97
2023-02-22T18:22:59.017Z,21.77
2023-02-22T18:25:26.539Z,22.80
2023-02-22T18:27:54.846Z,22.13
2023-02-22T18:30:21.714Z,21.03
2023-02-22T18:32:48.115Z,23.67
2023-02-22T18:35:14.461Z,22.37
2023-02-22T18:37:40.896Z,23.13
2023-02-22T18:40:10.519Z,23.47
2023-02-22T18:42:38.705Z,22.93
2023-02-22T18:45:07.155Z,26.20
2023-02-22T18:47:42.532Z,27.57
2023-02-22T18:50:10.649Z,27.47
2023-02-22T18:52:44.700Z,27.13
2023-02-22T18:55:19.242Z,29.03
2023-02-22T18:57:46.752Z,27.93
2023-02-22T19:00:16.103Z,29.23
2023-02-22T19:02:45.798Z,30.13
2023-02-22T19:05:17.191Z,30.17
2023-02-22T19:07:44.817Z,28.97
2023-02-22T19:10:11.322Z,30.40
2023-02-22T19:12:37.733Z,28.07
2023-02-22T19:15:04.410Z,30.37
2023-02-22T19:17:32.207Z,32.33
2023-02-22T19:19:58.601Z,33.73
2023-02-22T19:22:26.114Z,35.03
2023-02-22T19:24:56.296Z,33.60
2023-02-22T19:27:22.814Z,31.93
2023-02-22T19:29:49.870Z,34.67
2023-02-22T19:32:17.268Z,34.67
2023-02-22T19:34:44.002Z,35.37
2023-02-22T19:37:12.460Z,36.47
2023-02-22T19:39:39.010Z,35.60
2023-02-22T19:42:09.046Z,36.03
2023-02-22T19:44:36.863Z,38.47
2023-02-22T19:47:08.775Z,35.30
2023-02-22T19:49:37.062Z,35.57
2023-02-22T19:52:06.568Z,36.23
2023-02-22T19:54:33.530Z,34.80
2023-02-22T19:57:00.389Z,35.23
2023-02-22T19:59:27.339Z,33.10
2023-02-22T20:01:54.674Z,35.20
2023-02-22T20:04:21.566Z,34.00
2023-02-22T20:06:57.373Z,34.53
2023-02-22T20:09:29.702Z,31.53
2023-02-22T20:11:56.485Z,33.17
2023-02-22T20:14:25.934Z,32.00
2023-02-22T20:16:53.744Z,33.10
2023-02-22T20:19:22.398Z,33.80
2023-02-22T20:21:49.345Z,32.30
2023-02-22T20:24:18.110Z,35.43
2023-02-22T20:26:46.321Z,33.40
2023-02-22T20:29:13.757Z,32.73
2023-02-22T20:31:41.842Z,32.83
2023-02-22T20:34:09.683Z,34.27
2023-02-22T20:36:38.316Z,33.83
2023-02-22T20:39:13.030Z,34.30
2023-02-22T20:41:42.406Z,34.73
2023-02-22T20:44:12.001Z,34.97
2023-02-22T20:46:38.343Z,33.57
2023-02-22T20:49:11.021Z,34.40
2023-02-22T20:51:39.473Z,34.23
2023-02-22T20:54:06.543Z,35.77
2023-02-22T20:56:33.001Z,34.83
2023-02-22T20:59:02.438Z,33.40
2023-02-22T21:01:29.631Z,33.87
2023-02-22T21:04:00.973Z,33.80
2023-02-22T21:06:28.625Z,33.77
2023-02-22T21:08:57.910Z,34.30
2023-02-22T21:11:27.158Z,34.80
2023-02-22T21:13:53.843Z,35.20
2023-02-22T21:16:29.649Z,34.10
2023-02-22T21:18:58.939Z,33.30
2023-02-22T21:21:27.382Z,35.73
2023-02-22T21:23:56.203Z,35.50
2023-02-22T21:26:27.417Z,33.63
2023-02-22T21:28:54.970Z,34.07
2023-02-22T21:31:23.829Z,33.87
2023-02-22T21:33:52.710Z,36.60
2023-02-22T21:36:20.471Z,33.43
2023-02-22T21:38:53.060Z,35.53
2023-02-22T21:41:21.763Z,36.37
2023-02-22T21:43:50.144Z,35.67
2023-02-22T21:46:17.103Z,35.67
2023-02-22T21:48:48.807Z,37.67
2023-02-22T21:51:20.046Z,37.70
2023-02-22T21:53:52.242Z,37.37
2023-02-22T21:56:24.180Z,38.00
2023-02-22T21:58:58.989Z,37.43
2023-02-22T22:01:38.674Z,36.80
2023-02-22T22:04:05.134Z,37.20
2023-02-22T22:06:33.960Z,36.70
2023-02-22T22:09:00.345Z,38.07
2023-02-22T22:11:27.414Z,38.50
2023-02-22T22:13:57.323Z,39.50
2023-02-22T22:16:26.766Z,38.77
2023-02-22T22:18:54.718Z,39.90
2023-02-22T22:21:23.502Z,39.87
2023-02-22T22:23:54.164Z,38.00
2023-02-22T22:26:20.911Z,41.00
2023-02-22T22:28:49.626Z,41.50
2023-02-22T22:31:17.318Z,41.37
2023-02-22T22:33:44.776Z,42.53
2023-02-22T22:36:13.880Z,41.23
2023-02-22T22:38:40.338Z,41.90
2023-02-22T22:41:08.213Z,41.27
2023-02-22T22:43:36.467Z,42.03
2023-02-22T22:46:05.275Z,41.13
2023-02-22T22:48:35.880Z,41.90
2023-02-22T22:51:06.389Z,41.40
2023-02-22T22:53:34.082Z,42.83
2023-02-22T22:56:05.979Z,44.20
2023-02-22T22:58:33.806Z,42.97
2023-02-22T23:01:05.779Z,41.57
2023-02-22T23:03:38.316Z,42.47
2023-02-22T23:06:05.362Z,42.80
2023-02-22T23:08:42.852Z,44.10
2023-02-22T23:11:12.673Z,45.77
2023-02-22T23:13:39.505Z,45.07
2023-02-22T23:16:12.620Z,44.93
2023-02-22T23:18:43.047Z,45.93
2023-02-22T23:21:10.575Z,44.70
2023-02-22T23:23:37.868Z,46.13
2023-02-22T23:26:11.308Z,45.80
2023-02-22T23:28:39.362Z,45.60
2023-02-22T23:31:10.121Z,45.07
2023-02-22T23:33:38.170Z,45.60
2023-02-22T23:36:05.779Z,44.93
2023-02-22T23:38:34.665Z,44.73
2023-02-22T23:41:02.704Z,46.47
2023-02-22T23:43:32.435Z,43.20
2023-02-22T23:46:10.607Z,43.43
2023-02-22T23:48:46.553Z,44.73
2023-02-22T23:51:15.904Z,44.73
2023-02-22T23:53:45.955Z,45.67
2023-02-22T23:56:23.808Z,46.33
2023-02-22T23:58:51.784Z,44.90
